createdAt,value
2022-10-15T00:00:11.844Z,2.63
2022-10-15T00:02:40.110Z,2.60
2022-10-15T00:05:08.673Z,2.83
2022-10-15T00:07:38.306Z,2.40
2022-10-15T00:10:06.911Z,2.50
2022-10-15T00:12:35.189Z,2.53
2022-10-15T00:15:03.507Z,2.80
2022-10-15T00:17:31.746Z,2.90
2022-10-15T00:19:59.957Z,2.43
2022-10-15T00:22:28.222Z,1.73
2022-10-15T00:24:57.785Z,2.03
2022-10-15T00:27:26.029Z,2.40
2022-10-15T00:29:54.318Z,2.00
2022-10-15T00:32:22.781Z,2.50
2022-10-15T00:34:51.167Z,2.67
2022-10-15T00:37:20.996Z,2.93
2022-10-15T00:39:49.250Z,2.33
2022-10-15T00:42:19.026Z,1.87
2022-10-15T00:44:51.147Z,1.97
2022-10-15T00:47:19.995Z,2.20
2022-10-15T00:49:48.750Z,2.60
2022-10-15T00:52:17.847Z,2.43
2022-10-15T00:54:46.506Z,2.10
2022-10-15T00:57:14.781Z,2.17
2022-10-15T00:59:45.047Z,2.10
2022-10-15T01:02:13.279Z,1.70
2022-10-15T01:04:41.501Z,1.70
2022-10-15T01:07:09.961Z,1.60
2022-10-15T01:09:38.237Z,2.83
2022-10-15T01:12:06.571Z,1.77
2022-10-15T01:14:36.799Z,2.30
2022-10-15T01:17:07.131Z,1.70
2022-10-15T01:19:55.144Z,2.53
2022-10-15T01:22:25.469Z,2.07
2022-10-15T01:25:05.868Z,1.80
2022-10-15T01:27:37.355Z,1.87
2022-10-15T01:30:26.320Z,2.20
2022-10-15T01:33:18.499Z,2.03
2022-10-15T01:35:50.352Z,1.80
2022-10-15T01:38:22.372Z,1.77
2022-10-15T01:40:51.991Z,2.40
2022-10-15T01:45:56.694Z,2.30
2022-10-15T01:48:24.966Z,1.87
2022-10-15T01:50:54.999Z,1.83
2022-10-15T01:53:26.648Z,2.20
2022-10-15T01:55:55.829Z,1.87
2022-10-15T01:58:24.085Z,1.50
2022-10-15T02:00:52.378Z,1.80
2022-10-15T02:03:20.684Z,1.80
2022-10-15T02:05:49.571Z,1.60
2022-10-15T02:08:20.942Z,2.50
2022-10-15T02:10:51.199Z,1.80
2022-10-15T02:13:21.101Z,2.00
2022-10-15T02:15:51.673Z,1.93
2022-10-15T02:18:21.059Z,2.30
2022-10-15T02:20:52.203Z,2.10
2022-10-15T02:23:22.010Z,2.10
2022-10-15T02:25:50.509Z,2.10
2022-10-15T02:28:19.066Z,2.43
2022-10-15T02:30:47.938Z,2.03
2022-10-15T02:33:16.340Z,2.20
2022-10-15T02:35:44.783Z,2.00
2022-10-15T02:40:48.391Z,2.00
2022-10-15T02:43:16.939Z,1.90
2022-10-15T02:45:45.177Z,2.60
2022-10-15T02:48:13.435Z,2.63
2022-10-15T02:50:41.732Z,1.80
2022-10-15T02:53:09.996Z,1.63
2022-10-15T02:55:38.292Z,1.57
2022-10-15T02:58:07.896Z,2.23
2022-10-15T03:00:36.122Z,2.30
2022-10-15T03:03:04.343Z,2.00
2022-10-15T03:05:32.886Z,2.07
2022-10-15T03:08:01.209Z,2.00
2022-10-15T03:10:29.435Z,2.40
2022-10-15T03:12:57.704Z,1.87
2022-10-15T03:15:27.278Z,2.20
2022-10-15T03:17:55.536Z,1.40
2022-10-15T03:20:23.810Z,1.83
2022-10-15T03:22:52.028Z,1.73
2022-10-15T03:25:20.295Z,1.73
2022-10-15T03:27:48.587Z,1.73
2022-10-15T03:30:16.913Z,2.03
2022-10-15T03:32:46.613Z,1.87
2022-10-15T03:35:14.838Z,2.30
2022-10-15T03:37:43.060Z,2.17
2022-10-15T03:40:13.665Z,2.53
2022-10-15T03:42:42.706Z,1.47
2022-10-15T03:45:11.326Z,1.80
2022-10-15T03:47:39.552Z,2.37
2022-10-15T03:50:09.487Z,2.20
2022-10-15T03:52:37.998Z,2.43
2022-10-15T03:55:06.796Z,1.73
2022-10-15T03:57:35.003Z,1.93
2022-10-15T04:00:03.412Z,1.83
2022-10-15T04:02:32.511Z,1.73
2022-10-15T04:05:00.838Z,1.67
2022-10-15T04:07:30.457Z,2.10
2022-10-15T04:09:58.664Z,1.67
2022-10-15T04:12:27.177Z,2.13
2022-10-15T04:14:55.597Z,1.43
2022-10-15T04:17:23.819Z,1.47
2022-10-15T04:19:52.040Z,2.00
2022-10-15T04:22:20.454Z,1.60
2022-10-15T04:24:50.200Z,1.80
2022-10-15T04:27:18.467Z,2.17
2022-10-15T04:29:48.051Z,2.60
2022-10-15T04:32:16.353Z,2.43
2022-10-15T04:34:45.730Z,2.10
2022-10-15T04:37:13.964Z,2.60
2022-10-15T04:39:42.270Z,2.47
2022-10-15T04:42:11.897Z,2.67
2022-10-15T04:44:40.178Z,2.67
2022-10-15T04:47:08.390Z,3.30
2022-10-15T04:49:36.638Z,3.33
2022-10-15T04:52:04.891Z,3.53
2022-10-15T04:54:33.162Z,4.00
2022-10-15T04:57:01.459Z,3.73
2022-10-15T04:59:31.113Z,4.57
2022-10-15T05:01:59.412Z,5.90
2022-10-15T05:04:27.697Z,4.37
2022-10-15T05:06:55.981Z,5.10
2022-10-15T05:09:24.249Z,5.40
2022-10-15T05:11:52.534Z,4.60
2022-10-15T05:14:21.013Z,5.60
2022-10-15T05:16:50.588Z,5.27
2022-10-15T05:19:18.853Z,5.40
2022-10-15T05:21:47.057Z,5.10
2022-10-15T05:24:15.338Z,7.13
2022-10-15T05:26:43.608Z,5.73
2022-10-15T05:29:11.902Z,6.23
2022-10-15T05:31:40.211Z,5.07
2022-10-15T05:34:10.043Z,5.77
2022-10-15T05:36:38.437Z,5.50
2022-10-15T05:39:10.387Z,5.53
2022-10-15T05:41:38.666Z,5.93
2022-10-15T05:44:06.914Z,5.53
2022-10-15T05:46:35.193Z,6.70
2022-10-15T05:49:03.438Z,5.33
2022-10-15T05:51:33.074Z,8.07
2022-10-15T05:54:01.364Z,6.37
2022-10-15T05:56:29.618Z,6.33
2022-10-15T05:58:58.267Z,6.47
2022-10-15T06:01:26.528Z,6.10
2022-10-15T06:03:54.805Z,6.93
2022-10-15T06:06:23.624Z,5.40
2022-10-15T06:08:53.232Z,6.33
2022-10-15T06:11:21.584Z,4.97
2022-10-15T06:13:50.972Z,5.87
2022-10-15T06:16:23.535Z,5.57
2022-10-15T06:18:53.356Z,5.50
2022-10-15T06:21:21.667Z,6.57
2022-10-15T06:23:49.927Z,5.43
2022-10-15T06:26:19.698Z,5.40
2022-10-15T06:28:48.017Z,6.10
2022-10-15T06:31:16.420Z,5.07
2022-10-15T06:33:45.033Z,4.50
2022-10-15T06:36:14.339Z,4.63
2022-10-15T06:38:44.231Z,4.47
2022-10-15T06:41:12.733Z,4.37
2022-10-15T06:43:42.342Z,4.97
2022-10-15T06:46:10.707Z,4.93
2022-10-15T06:48:39.038Z,4.17
2022-10-15T06:51:07.416Z,4.50
2022-10-15T06:53:35.660Z,4.90
2022-10-15T06:56:04.398Z,4.40
2022-10-15T06:58:35.055Z,4.43
2022-10-15T07:01:04.959Z,5.53
2022-10-15T07:03:33.274Z,4.40
2022-10-15T07:06:03.421Z,4.37
2022-10-15T07:08:31.781Z,4.13
2022-10-15T07:11:00.051Z,4.33
2022-10-15T07:13:28.334Z,3.90
2022-10-15T07:15:56.714Z,4.17
2022-10-15T07:18:26.392Z,4.63
2022-10-15T07:20:54.667Z,3.67
2022-10-15T07:23:27.824Z,3.67
2022-10-15T07:25:56.402Z,4.23
2022-10-15T07:28:24.749Z,3.23
2022-10-15T07:30:53.381Z,4.03
2022-10-15T07:33:21.697Z,4.13
2022-10-15T07:35:51.329Z,4.53
2022-10-15T07:38:19.637Z,3.27
2022-10-15T07:40:47.931Z,4.30
2022-10-15T07:43:17.011Z,3.33
2022-10-15T07:45:45.996Z,4.40
2022-10-15T07:48:14.221Z,4.10
2022-10-15T07:50:42.478Z,3.30
2022-10-15T07:53:12.164Z,3.57
2022-10-15T07:55:40.444Z,3.87
2022-10-15T07:58:09.046Z,3.67
2022-10-15T08:00:37.348Z,3.80
2022-10-15T08:03:05.715Z,2.93
2022-10-15T08:05:34.059Z,3.77
2022-10-15T08:08:02.380Z,3.03
2022-10-15T08:10:32.028Z,3.57
2022-10-15T08:13:00.455Z,3.27
2022-10-15T08:15:28.748Z,3.37
2022-10-15T08:17:57.002Z,3.23
2022-10-15T08:20:25.335Z,3.40
2022-10-15T08:22:53.608Z,2.93
2022-10-15T08:25:21.879Z,2.83
2022-10-15T08:27:51.733Z,2.70
2022-10-15T08:30:20.019Z,3.07
2022-10-15T08:32:50.552Z,3.30
2022-10-15T08:35:19.304Z,3.00
2022-10-15T08:37:47.583Z,3.27
2022-10-15T08:40:15.872Z,3.30
2022-10-15T08:42:44.719Z,3.53
2022-10-15T08:45:15.625Z,3.13
2022-10-15T08:47:45.155Z,3.47
2022-10-15T08:50:14.795Z,3.07
2022-10-15T08:52:43.645Z,2.87
2022-10-15T08:55:12.203Z,3.03
2022-10-15T08:57:42.151Z,3.60
2022-10-15T09:00:13.613Z,3.77
2022-10-15T09:02:44.487Z,4.23
2022-10-15T09:05:18.755Z,4.03
2022-10-15T09:07:50.892Z,3.30
2022-10-15T09:10:25.701Z,3.70
2022-10-15T09:12:55.409Z,3.40
2022-10-15T09:15:26.986Z,3.60
2022-10-15T09:17:57.750Z,4.03
2022-10-15T09:20:27.010Z,2.97
2022-10-15T09:22:55.263Z,2.90
2022-10-15T09:25:26.490Z,2.57
2022-10-15T09:27:56.925Z,2.73
2022-10-15T09:30:28.018Z,2.60
2022-10-15T09:32:59.987Z,3.13
2022-10-15T09:35:28.658Z,3.43
2022-10-15T09:38:02.278Z,2.50
2022-10-15T09:40:37.826Z,2.40
2022-10-15T09:43:06.075Z,2.57
2022-10-15T09:45:34.530Z,2.33
2022-10-15T09:48:04.246Z,2.13
2022-10-15T09:50:38.588Z,2.43
2022-10-15T09:53:08.313Z,2.50
2022-10-15T09:55:38.419Z,1.93
2022-10-15T09:58:06.983Z,2.67
2022-10-15T10:00:54.595Z,2.30
2022-10-15T10:03:24.858Z,2.53
2022-10-15T10:05:53.294Z,1.40
2022-10-15T10:08:22.934Z,1.97
2022-10-15T10:10:55.752Z,1.73
2022-10-15T10:13:25.118Z,2.47
2022-10-15T10:15:57.628Z,2.10
2022-10-15T10:18:29.128Z,2.03
2022-10-15T10:20:59.059Z,1.53
2022-10-15T10:23:28.060Z,1.83
2022-10-15T10:25:57.304Z,2.10
2022-10-15T10:28:27.195Z,2.07
2022-10-15T10:31:03.434Z,1.63
2022-10-15T10:33:33.399Z,1.90
2022-10-15T10:36:01.857Z,1.70
2022-10-15T10:38:31.463Z,2.03
2022-10-15T10:41:05.208Z,1.70
2022-10-15T10:43:38.982Z,1.60
2022-10-15T10:46:12.732Z,1.30
2022-10-15T10:48:43.125Z,1.47
2022-10-15T10:51:15.236Z,1.33
2022-10-15T10:53:49.091Z,1.33
2022-10-15T10:56:18.473Z,1.07
2022-10-15T10:58:46.950Z,1.20
2022-10-15T11:01:15.515Z,1.27
2022-10-15T11:03:45.997Z,1.40
2022-10-15T11:06:18.641Z,1.40
2022-10-15T11:08:48.043Z,1.10
2022-10-15T11:11:19.683Z,1.30
2022-10-15T11:13:50.934Z,1.23
2022-10-15T11:16:21.237Z,1.10
2022-10-15T11:18:57.052Z,1.17
2022-10-15T11:21:28.280Z,1.27
2022-10-15T11:24:00.245Z,0.87
2022-10-15T11:26:41.657Z,1.03
2022-10-15T11:29:22.754Z,1.50
2022-10-15T11:32:02.874Z,1.33
2022-10-15T11:34:44.924Z,1.40
2022-10-15T11:37:17.975Z,1.10
2022-10-15T11:39:49.534Z,1.47
2022-10-15T11:42:18.923Z,1.00
2022-10-15T11:44:53.542Z,0.90
2022-10-15T11:47:24.936Z,1.07
2022-10-15T11:49:57.717Z,1.13
2022-10-15T11:52:29.612Z,0.80
2022-10-15T11:55:00.942Z,1.20
2022-10-15T11:57:29.304Z,1.27
2022-10-15T11:59:57.731Z,0.90
2022-10-15T12:02:26.408Z,1.00
2022-10-15T12:04:56.970Z,1.17
2022-10-15T12:07:25.670Z,1.20
2022-10-15T12:09:54.205Z,1.03
2022-10-15T12:12:25.982Z,1.27
2022-10-15T12:14:55.205Z,1.13
2022-10-15T12:17:23.752Z,1.40
2022-10-15T12:19:54.390Z,1.27
2022-10-15T12:22:37.821Z,1.30
2022-10-15T12:25:06.676Z,1.30
2022-10-15T12:27:38.174Z,1.60
2022-10-15T12:30:13.963Z,1.60
2022-10-15T12:32:42.696Z,1.50
2022-10-15T12:37:55.036Z,1.20
2022-10-15T12:40:27.851Z,1.33
2022-10-15T12:42:56.309Z,1.33
2022-10-15T12:45:24.843Z,1.60
2022-10-15T12:47:54.853Z,1.93
2022-10-15T12:50:23.514Z,1.70
2022-10-15T12:52:59.803Z,1.20
2022-10-15T12:55:32.002Z,1.50
2022-10-15T12:58:01.361Z,1.30
2022-10-15T13:00:33.710Z,1.50
2022-10-15T13:03:10.336Z,1.50
2022-10-15T13:05:38.683Z,1.63
2022-10-15T13:08:13.268Z,1.60
2022-10-15T13:10:41.954Z,1.30
2022-10-15T13:13:14.059Z,0.83
2022-10-15T13:15:42.281Z,1.30
2022-10-15T13:18:10.636Z,1.03
2022-10-15T13:20:39.323Z,0.83
2022-10-15T13:23:25.724Z,0.90
2022-10-15T13:26:14.579Z,1.00
2022-10-15T13:28:43.262Z,1.10
2022-10-15T13:31:15.109Z,1.00
2022-10-15T13:33:43.656Z,0.70
2022-10-15T13:36:16.214Z,0.90
2022-10-15T13:38:47.385Z,0.60
2022-10-15T13:41:15.691Z,0.73
2022-10-15T13:43:52.298Z,0.80
2022-10-15T13:46:20.577Z,0.93
2022-10-15T13:48:49.183Z,1.10
2022-10-15T13:51:17.555Z,1.17
2022-10-15T13:53:47.439Z,1.23
2022-10-15T13:56:21.571Z,1.47
2022-10-15T13:58:49.847Z,0.90
2022-10-15T14:01:18.727Z,1.73
2022-10-15T14:03:49.835Z,1.10
2022-10-15T14:06:18.840Z,1.13
2022-10-15T14:08:49.184Z,1.30
2022-10-15T14:11:17.932Z,1.13
2022-10-15T14:13:46.380Z,1.23
2022-10-15T14:16:16.286Z,0.80
2022-10-15T14:18:48.303Z,1.60
2022-10-15T14:21:18.290Z,1.47
2022-10-15T14:23:48.762Z,1.07
2022-10-15T14:26:17.477Z,0.90
2022-10-15T14:28:46.975Z,1.17
2022-10-15T14:31:17.120Z,1.00
2022-10-15T14:33:46.280Z,0.77
2022-10-15T14:36:25.903Z,0.50
2022-10-15T14:38:55.610Z,0.60
2022-10-15T14:41:34.539Z,0.50
2022-10-15T14:44:06.797Z,0.70
2022-10-15T14:46:37.414Z,0.60
2022-10-15T14:49:05.680Z,0.70
2022-10-15T14:51:33.935Z,0.70
2022-10-15T14:54:03.614Z,0.57
2022-10-15T14:56:32.028Z,0.77
2022-10-15T14:59:01.140Z,0.67
2022-10-15T15:01:33.958Z,0.60
2022-10-15T15:04:04.442Z,0.53
2022-10-15T15:06:34.616Z,0.87
2022-10-15T15:09:06.611Z,0.73
2022-10-15T15:11:35.035Z,1.50
2022-10-15T15:14:03.665Z,2.10
2022-10-15T15:16:31.898Z,2.27
2022-10-15T15:19:00.265Z,3.47
2022-10-15T15:21:28.546Z,2.97
2022-10-15T15:23:56.912Z,2.20
2022-10-15T15:26:26.634Z,1.73
2022-10-15T15:28:55.935Z,1.90
2022-10-15T15:31:24.239Z,1.73
2022-10-15T15:33:52.833Z,1.13
2022-10-15T15:36:23.809Z,1.07
2022-10-15T15:38:52.788Z,1.30
2022-10-15T15:41:21.872Z,1.60
2022-10-15T15:43:51.481Z,1.37
2022-10-15T15:46:19.825Z,1.00
2022-10-15T15:48:48.171Z,0.87
2022-10-15T15:51:21.721Z,1.37
2022-10-15T15:53:49.987Z,0.87
2022-10-15T15:56:18.286Z,0.93
2022-10-15T15:58:46.829Z,1.20
2022-10-15T16:01:16.516Z,1.00
2022-10-15T16:03:44.798Z,0.87
2022-10-15T16:06:14.013Z,0.77
2022-10-15T16:08:42.271Z,0.93
2022-10-15T16:11:10.549Z,0.70
2022-10-15T16:13:38.929Z,1.00
2022-10-15T16:16:07.664Z,1.37
2022-10-15T16:18:38.269Z,1.00
2022-10-15T16:21:06.624Z,1.07
2022-10-15T16:23:34.903Z,0.80
2022-10-15T16:26:03.222Z,1.03
2022-10-15T16:28:32.011Z,1.10
2022-10-15T16:31:15.019Z,1.37
2022-10-15T16:33:44.778Z,1.37
2022-10-15T16:36:13.098Z,1.00
2022-10-15T16:38:41.710Z,1.13
2022-10-15T16:41:10.070Z,0.90
2022-10-15T16:43:38.346Z,1.07
2022-10-15T16:46:06.971Z,0.87
2022-10-15T16:48:35.306Z,1.17
2022-10-15T16:51:06.025Z,0.93
2022-10-15T16:53:35.504Z,1.40
2022-10-15T16:56:03.918Z,1.10
2022-10-15T16:58:32.219Z,1.63
2022-10-15T17:01:01.465Z,1.03
2022-10-15T17:03:30.118Z,1.33
2022-10-15T17:05:58.918Z,1.10
2022-10-15T17:08:33.307Z,1.20
2022-10-15T17:11:03.934Z,1.27
2022-10-15T17:13:32.355Z,1.00
2022-10-15T17:16:08.977Z,1.23
2022-10-15T17:18:37.403Z,1.33
2022-10-15T17:21:05.725Z,0.90
2022-10-15T17:23:35.338Z,1.20
2022-10-15T17:26:04.762Z,0.97
2022-10-15T17:28:32.984Z,1.30
2022-10-15T17:31:04.851Z,0.90
2022-10-15T17:33:33.131Z,0.80
2022-10-15T17:36:03.243Z,1.70
2022-10-15T17:38:31.830Z,1.20
2022-10-15T17:41:01.547Z,1.13
2022-10-15T17:43:29.801Z,1.53
2022-10-15T17:46:01.180Z,0.97
2022-10-15T17:48:29.513Z,1.23
2022-10-15T17:50:57.782Z,1.10
2022-10-15T17:53:26.237Z,1.07
2022-10-15T17:55:54.491Z,1.23
2022-10-15T17:58:24.144Z,0.87
2022-10-15T18:00:55.912Z,1.17
2022-10-15T18:03:24.426Z,1.00
2022-10-15T18:05:52.815Z,0.90
2022-10-15T18:08:21.079Z,1.30
2022-10-15T18:10:51.928Z,1.23
2022-10-15T18:13:20.286Z,0.80
2022-10-15T18:15:50.246Z,1.17
2022-10-15T18:18:18.557Z,0.80
2022-10-15T18:20:47.063Z,0.90
2022-10-15T18:23:15.328Z,1.00
2022-10-15T18:25:43.562Z,1.23
2022-10-15T18:28:11.965Z,0.93
2022-10-15T18:30:40.695Z,1.20
2022-10-15T18:33:10.820Z,1.40
2022-10-15T18:35:39.549Z,0.97
2022-10-15T18:38:07.802Z,0.83
2022-10-15T18:40:40.089Z,1.00
2022-10-15T18:43:09.417Z,1.10
2022-10-15T18:45:37.722Z,0.70
2022-10-15T18:48:06.279Z,1.00
2022-10-15T18:50:36.277Z,0.80
2022-10-15T18:53:04.934Z,0.67
2022-10-15T18:55:33.228Z,0.60
2022-10-15T18:58:02.100Z,1.20
2022-10-15T19:00:31.424Z,0.60
2022-10-15T19:02:59.890Z,0.90
2022-10-15T19:05:28.258Z,0.87
2022-10-15T19:07:57.882Z,0.80
2022-10-15T19:10:26.157Z,0.90
2022-10-15T19:12:54.471Z,0.90
2022-10-15T19:15:22.679Z,0.90
2022-10-15T19:17:50.933Z,0.67
2022-10-15T19:20:19.713Z,0.90
2022-10-15T19:22:47.960Z,0.80
2022-10-15T19:25:17.561Z,0.70
2022-10-15T19:27:45.920Z,0.60
2022-10-15T19:30:14.192Z,0.80
2022-10-15T19:32:44.116Z,1.03
2022-10-15T19:35:12.481Z,0.93
2022-10-15T19:37:40.750Z,0.90
2022-10-15T19:40:09.890Z,0.73
2022-10-15T19:42:39.624Z,0.60
2022-10-15T19:45:08.304Z,1.10
2022-10-15T19:47:36.601Z,0.80
2022-10-15T19:50:05.095Z,0.50
2022-10-15T19:52:33.316Z,0.60
2022-10-15T19:55:02.838Z,0.60
2022-10-15T19:57:31.206Z,0.60
2022-10-15T20:00:02.083Z,0.68
2022-10-15T20:02:30.352Z,0.53
2022-10-15T20:04:58.691Z,0.60
2022-10-15T20:07:27.335Z,0.80
2022-10-15T20:09:55.753Z,0.60
2022-10-15T20:12:24.196Z,0.50
2022-10-15T20:14:52.444Z,0.50
2022-10-15T20:17:22.093Z,0.90
2022-10-15T20:19:50.501Z,0.40
2022-10-15T20:22:18.742Z,0.57
2022-10-15T20:24:47.020Z,0.60
2022-10-15T20:27:15.372Z,0.53
2022-10-15T20:29:43.677Z,0.50
2022-10-15T20:32:23.491Z,1.03
2022-10-15T20:35:03.713Z,0.50
2022-10-15T20:37:32.132Z,0.53
2022-10-15T20:40:00.883Z,0.50
2022-10-15T20:42:29.395Z,0.30
2022-10-15T20:44:57.872Z,0.67
2022-10-15T20:47:26.119Z,0.60
2022-10-15T20:49:54.355Z,0.90
2022-10-15T20:52:24.480Z,0.67
2022-10-15T20:54:53.021Z,0.63
2022-10-15T20:57:21.269Z,0.60
2022-10-15T20:59:49.692Z,0.80
2022-10-15T21:02:17.939Z,0.73
2022-10-15T21:04:48.269Z,0.73
2022-10-15T21:07:16.608Z,0.83
2022-10-15T21:09:46.248Z,0.60
2022-10-15T21:12:14.497Z,0.70
2022-10-15T21:14:42.819Z,0.80
2022-10-15T21:17:11.108Z,0.80
2022-10-15T21:19:39.386Z,0.57
2022-10-15T21:22:07.626Z,0.87
2022-10-15T21:24:35.949Z,0.40
2022-10-15T21:27:06.034Z,0.50
2022-10-15T21:29:34.277Z,0.30
2022-10-15T21:32:02.544Z,0.43
2022-10-15T21:34:30.959Z,0.70
2022-10-15T21:36:59.233Z,0.50
2022-10-15T21:39:27.458Z,0.40
2022-10-15T21:41:55.826Z,0.90
2022-10-15T21:44:25.406Z,0.40
2022-10-15T21:46:53.642Z,0.70
2022-10-15T21:49:22.087Z,0.60
2022-10-15T21:51:50.340Z,0.60
2022-10-15T21:54:18.610Z,0.40
2022-10-15T21:56:46.936Z,0.50
2022-10-15T21:59:15.558Z,0.40
2022-10-15T22:01:45.635Z,0.60
2022-10-15T22:04:14.071Z,0.53
2022-10-15T22:06:42.352Z,0.60
2022-10-15T22:09:10.728Z,0.50
2022-10-15T22:11:41.755Z,0.30
2022-10-15T22:14:10.519Z,0.57
2022-10-15T22:16:39.228Z,0.70
2022-10-15T22:19:09.786Z,0.40
2022-10-15T22:21:38.373Z,0.50
2022-10-15T22:24:07.543Z,0.40
2022-10-15T22:26:36.307Z,0.40
2022-10-15T22:29:05.051Z,0.47
2022-10-15T22:31:33.443Z,0.40
2022-10-15T22:34:01.726Z,0.47
2022-10-15T22:36:31.592Z,0.47
2022-10-15T22:39:01.477Z,0.60
2022-10-15T22:41:30.412Z,0.50
2022-10-15T22:43:58.718Z,0.50
2022-10-15T22:46:27.149Z,0.40
2022-10-15T22:48:56.649Z,0.60
2022-10-15T22:51:25.303Z,0.30
2022-10-15T22:53:56.938Z,0.40
2022-10-15T22:56:25.472Z,0.60
2022-10-15T22:58:53.737Z,0.50
2022-10-15T23:01:22.526Z,0.30
2022-10-15T23:03:51.178Z,0.40
2022-10-15T23:06:20.102Z,0.40
2022-10-15T23:08:48.377Z,0.40
2022-10-15T23:11:18.231Z,0.43
2022-10-15T23:13:46.729Z,0.50
2022-10-15T23:16:15.435Z,0.70
2022-10-15T23:18:44.502Z,0.50
2022-10-15T23:21:14.729Z,0.60
2022-10-15T23:23:42.975Z,0.43
2022-10-15T23:26:11.719Z,0.40
2022-10-15T23:28:41.387Z,0.53
2022-10-15T23:31:13.145Z,0.70
2022-10-15T23:33:41.396Z,0.27
2022-10-15T23:36:09.753Z,0.50
2022-10-15T23:38:38.031Z,0.60
2022-10-15T23:41:06.916Z,0.60
2022-10-15T23:43:35.174Z,0.57
2022-10-15T23:46:04.818Z,0.60
2022-10-15T23:48:33.054Z,0.60
2022-10-15T23:51:03.472Z,0.40
2022-10-15T23:53:33.481Z,0.50
2022-10-15T23:56:03.339Z,0.43
2022-10-15T23:58:32.142Z,0.50
